createdAt,value
2019-03-06T00:00:57.681Z,16.10
2019-03-06T00:03:26.149Z,21.13
2019-03-06T00:05:54.589Z,21.73
2019-03-06T00:08:23.013Z,17.13
2019-03-06T00:10:51.503Z,16.90
2019-03-06T00:13:20.316Z,18.70
2019-03-06T00:15:48.916Z,16.90
2019-03-06T00:18:17.337Z,18.67
2019-03-06T00:20:45.771Z,21.47
2019-03-06T00:23:14.195Z,23.37
2019-03-06T00:25:42.619Z,18.07
2019-03-06T00:28:11.305Z,18.67
2019-03-06T00:30:40.082Z,20.33
2019-03-06T00:33:08.574Z,23.10
2019-03-06T00:35:44.110Z,18.30
2019-03-06T00:38:12.532Z,18.53
2019-03-06T00:40:51.309Z,21.30
2019-03-06T00:43:19.725Z,18.80
2019-03-06T00:45:48.144Z,15.70
2019-03-06T00:48:16.809Z,15.70
2019-03-06T00:50:45.620Z,19.10
2019-03-06T00:53:14.044Z,17.33
2019-03-06T00:55:42.461Z,17.30
2019-03-06T00:58:10.891Z,16.47
2019-03-06T01:00:39.377Z,18.97
2019-03-06T01:03:08.176Z,19.33
2019-03-06T01:05:36.602Z,20.93
2019-03-06T01:08:05.105Z,16.07
2019-03-06T01:10:33.524Z,22.67
2019-03-06T01:13:01.958Z,20.13
2019-03-06T01:15:30.413Z,17.43
2019-03-06T01:17:58.899Z,18.50
2019-03-06T01:20:27.394Z,19.50
2019-03-06T01:22:55.825Z,19.50
2019-03-06T01:25:24.241Z,17.20
2019-03-06T01:27:52.661Z,20.47
2019-03-06T01:30:24.952Z,19.70
2019-03-06T01:33:07.142Z,18.30
2019-03-06T01:35:49.337Z,17.37
2019-03-06T01:38:25.661Z,18.33
2019-03-06T01:43:54.217Z,18.77
2019-03-06T01:46:22.705Z,17.33
2019-03-06T01:48:51.370Z,19.03
2019-03-06T01:51:19.805Z,23.90
2019-03-06T01:53:48.545Z,19.80
2019-03-06T01:56:17.224Z,18.67
2019-03-06T01:58:45.641Z,18.50
2019-03-06T02:01:33.400Z,18.40
2019-03-06T02:04:02.781Z,19.30
2019-03-06T02:06:31.892Z,17.57
2019-03-06T02:09:00.404Z,17.57
2019-03-06T02:11:28.820Z,20.20
2019-03-06T02:13:57.244Z,16.70
2019-03-06T02:16:26.039Z,17.57
2019-03-06T02:18:54.483Z,18.57
2019-03-06T02:21:22.960Z,16.80
2019-03-06T02:23:51.395Z,16.17
2019-03-06T02:26:19.808Z,15.90
2019-03-06T02:28:48.233Z,15.47
2019-03-06T02:31:16.655Z,13.87
2019-03-06T02:33:45.086Z,14.47
2019-03-06T02:36:13.500Z,16.90
2019-03-06T02:38:41.929Z,20.27
2019-03-06T02:41:10.344Z,19.87
2019-03-06T02:43:39.262Z,23.80
2019-03-06T02:46:07.673Z,18.53
2019-03-06T02:48:36.096Z,16.53
2019-03-06T02:51:04.536Z,17.43
2019-03-06T02:53:32.973Z,15.83
2019-03-06T02:56:01.466Z,15.23
2019-03-06T02:58:31.524Z,13.30
2019-03-06T03:01:17.153Z,12.40
2019-03-06T03:04:03.799Z,14.97
2019-03-06T03:06:40.370Z,14.80
2019-03-06T03:09:14.824Z,16.30
2019-03-06T03:11:43.539Z,14.33
2019-03-06T03:14:12.049Z,14.17
2019-03-06T03:16:40.526Z,14.70
2019-03-06T03:19:08.946Z,14.43
2019-03-06T03:21:37.360Z,13.70
2019-03-06T03:24:05.822Z,14.90
2019-03-06T03:26:34.418Z,15.57
2019-03-06T03:29:02.913Z,14.90
2019-03-06T03:31:31.332Z,15.40
2019-03-06T03:33:59.799Z,12.97
2019-03-06T03:36:28.263Z,15.67
2019-03-06T03:38:56.755Z,13.33
2019-03-06T03:41:25.185Z,13.17
2019-03-06T03:43:53.678Z,12.50
2019-03-06T03:46:22.107Z,10.40
2019-03-06T03:48:50.557Z,11.03
2019-03-06T03:51:19.072Z,11.13
2019-03-06T03:53:48.127Z,10.97
2019-03-06T03:56:16.539Z,11.43
2019-03-06T03:59:04.289Z,10.60
2019-03-06T04:01:32.706Z,10.43
2019-03-06T04:04:01.405Z,11.10
2019-03-06T04:06:29.829Z,10.30
2019-03-06T04:08:58.242Z,11.00
2019-03-06T04:11:26.649Z,10.47
2019-03-06T04:13:55.091Z,10.77
2019-03-06T04:16:23.496Z,10.37
2019-03-06T04:18:51.926Z,10.30
2019-03-06T04:21:20.341Z,13.00
2019-03-06T04:23:48.765Z,11.17
2019-03-06T04:26:17.185Z,11.87
2019-03-06T04:28:45.612Z,12.47
2019-03-06T04:31:14.301Z,13.73
2019-03-06T04:33:42.712Z,13.47
2019-03-06T04:36:11.473Z,13.93
2019-03-06T04:38:39.893Z,13.60
2019-03-06T04:41:08.313Z,14.00
2019-03-06T04:43:36.737Z,14.00
2019-03-06T04:46:05.162Z,13.20
2019-03-06T04:48:33.572Z,11.97
2019-03-06T04:51:01.995Z,11.67
2019-03-06T04:53:30.441Z,11.03
2019-03-06T04:56:18.207Z,10.07
2019-03-06T04:58:46.934Z,10.90
2019-03-06T05:01:15.357Z,11.43
2019-03-06T05:03:43.777Z,11.33
2019-03-06T05:06:12.212Z,12.77
2019-03-06T05:08:40.633Z,16.00
2019-03-06T05:11:09.058Z,14.53
2019-03-06T05:13:37.476Z,17.40
2019-03-06T05:16:05.918Z,17.33
2019-03-06T05:18:40.468Z,15.47
2019-03-06T05:21:10.429Z,15.40
2019-03-06T05:23:38.844Z,14.73
2019-03-06T05:26:07.278Z,17.43
2019-03-06T05:28:35.688Z,15.47
2019-03-06T05:31:04.112Z,14.33
2019-03-06T05:33:32.835Z,14.93
2019-03-06T05:36:24.604Z,12.73
2019-03-06T05:39:07.981Z,14.57
2019-03-06T05:41:36.677Z,13.28
2019-03-06T05:44:05.631Z,11.90
2019-03-06T05:46:34.132Z,13.53
2019-03-06T05:49:02.553Z,12.40
2019-03-06T05:51:30.972Z,13.17
2019-03-06T05:53:59.713Z,12.53
2019-03-06T05:56:28.138Z,12.73
2019-03-06T05:58:56.874Z,12.37
2019-03-06T06:01:25.298Z,9.23
2019-03-06T06:03:53.727Z,9.90
2019-03-06T06:06:22.136Z,9.63
2019-03-06T06:08:50.594Z,9.37
2019-03-06T06:11:19.007Z,9.50
2019-03-06T06:13:47.432Z,9.37
2019-03-06T06:16:15.865Z,10.07
2019-03-06T06:18:44.281Z,10.40
2019-03-06T06:24:10.747Z,11.93
2019-03-06T06:26:39.205Z,13.47
2019-03-06T06:29:07.939Z,16.43
2019-03-06T06:31:36.390Z,13.93
2019-03-06T06:34:04.808Z,14.10
2019-03-06T06:36:33.509Z,13.90
2019-03-06T06:39:02.261Z,13.87
2019-03-06T06:41:30.686Z,12.70
2019-03-06T06:43:59.119Z,10.33
2019-03-06T06:46:27.530Z,9.60
2019-03-06T06:48:56.224Z,9.97
2019-03-06T06:51:47.288Z,9.67
2019-03-06T06:54:46.397Z,12.70
2019-03-06T06:57:20.824Z,13.73
2019-03-06T07:00:13.728Z,12.30
2019-03-06T07:03:08.912Z,13.47
2019-03-06T07:05:44.938Z,16.57
2019-03-06T07:08:26.925Z,15.93
2019-03-06T07:11:05.649Z,19.07
2019-03-06T07:13:38.407Z,22.80
2019-03-06T07:16:11.168Z,16.83
2019-03-06T07:18:57.829Z,17.10
2019-03-06T07:21:42.912Z,13.03
2019-03-06T07:24:29.092Z,13.10
2019-03-06T07:27:22.503Z,14.47
2019-03-06T07:29:55.180Z,14.17
2019-03-06T07:32:34.507Z,16.60
2019-03-06T07:35:47.599Z,14.67
2019-03-06T07:38:16.248Z,13.83
2019-03-06T07:41:03.188Z,12.40
2019-03-06T07:43:49.521Z,11.20
2019-03-06T07:46:25.331Z,11.47
2019-03-06T07:49:02.313Z,12.83
2019-03-06T07:51:44.177Z,12.03
2019-03-06T07:54:14.248Z,12.23
2019-03-06T07:56:46.045Z,12.07
2019-03-06T07:59:14.481Z,11.80
2019-03-06T08:02:01.490Z,11.27
2019-03-06T08:04:29.910Z,10.83
2019-03-06T08:06:59.975Z,9.83
2019-03-06T08:09:28.391Z,9.77
2019-03-06T08:12:14.957Z,8.73
2019-03-06T08:14:51.005Z,9.10
2019-03-06T08:20:17.060Z,7.97
2019-03-06T08:23:03.552Z,9.83
2019-03-06T08:25:48.789Z,11.17
2019-03-06T08:28:17.282Z,10.90
2019-03-06T08:30:50.621Z,10.50
2019-03-06T08:33:19.124Z,11.20
2019-03-06T08:35:47.544Z,10.03
2019-03-06T08:38:15.969Z,8.97
2019-03-06T08:40:44.385Z,8.97
2019-03-06T08:43:12.806Z,9.23
2019-03-06T08:45:45.532Z,9.30
2019-03-06T08:48:27.524Z,9.07
2019-03-06T08:50:57.575Z,9.60
2019-03-06T08:53:27.646Z,9.47
2019-03-06T08:56:01.340Z,9.30
2019-03-06T08:58:46.732Z,9.53
2019-03-06T09:01:36.187Z,10.20
2019-03-06T09:04:22.815Z,9.90
2019-03-06T09:06:52.863Z,10.83
2019-03-06T09:09:39.215Z,9.40
2019-03-06T09:12:09.273Z,8.60
2019-03-06T09:14:55.887Z,8.57
2019-03-06T09:17:28.698Z,8.47
2019-03-06T09:20:04.929Z,9.23
2019-03-06T09:22:35.000Z,8.03
2019-03-06T09:25:06.145Z,7.60
2019-03-06T09:27:48.015Z,7.47
2019-03-06T09:30:21.143Z,6.77
2019-03-06T09:32:53.856Z,5.93
2019-03-06T09:35:24.444Z,5.17
2019-03-06T09:38:11.386Z,4.93
2019-03-06T09:40:57.660Z,3.97
2019-03-06T09:43:30.424Z,3.83
2019-03-06T09:46:15.257Z,3.90
2019-03-06T09:48:45.301Z,3.10
2019-03-06T09:51:52.936Z,2.87
2019-03-06T09:54:39.748Z,2.80
2019-03-06T09:57:21.790Z,2.43
2019-03-06T10:00:06.603Z,2.00
2019-03-06T10:02:53.408Z,2.60
2019-03-06T10:05:29.268Z,2.40
2019-03-06T10:08:15.931Z,2.13
2019-03-06T10:10:50.500Z,1.93
2019-03-06T10:13:17.750Z,2.17
2019-03-06T10:15:47.804Z,1.93
2019-03-06T10:18:17.844Z,2.17
2019-03-06T10:20:46.267Z,2.40
2019-03-06T10:23:14.691Z,2.30
2019-03-06T10:25:43.112Z,2.00
2019-03-06T10:28:11.514Z,1.80
2019-03-06T10:30:40.184Z,2.00
2019-03-06T10:33:08.592Z,2.13
2019-03-06T10:35:37.086Z,2.40
2019-03-06T10:38:05.741Z,2.40
2019-03-06T10:40:34.228Z,2.50
2019-03-06T10:43:02.808Z,2.67
2019-03-06T10:45:31.296Z,2.90
2019-03-06T10:47:59.707Z,2.83
2019-03-06T10:50:30.005Z,2.77
2019-03-06T10:52:58.323Z,3.00
2019-03-06T10:55:27.045Z,2.93
2019-03-06T10:57:55.817Z,2.90
2019-03-06T11:00:28.544Z,2.90
2019-03-06T11:02:57.417Z,3.43
2019-03-06T11:05:30.440Z,2.47
2019-03-06T11:08:00.175Z,2.47
2019-03-06T11:10:30.589Z,2.87
2019-03-06T11:12:59.925Z,2.47
2019-03-06T11:15:28.481Z,2.60
2019-03-06T11:17:57.306Z,2.10
2019-03-06T11:20:31.752Z,2.20
2019-03-06T11:23:02.523Z,2.43
2019-03-06T11:25:32.824Z,2.70
2019-03-06T11:28:01.582Z,2.73
2019-03-06T11:30:41.942Z,2.40
2019-03-06T11:33:11.559Z,2.50
2019-03-06T11:35:40.741Z,2.10
2019-03-06T11:38:09.877Z,2.60
2019-03-06T11:40:38.458Z,2.23
2019-03-06T11:43:08.514Z,2.20
2019-03-06T11:45:39.352Z,2.20
2019-03-06T11:48:08.204Z,3.03
2019-03-06T11:50:40.797Z,3.33
2019-03-06T11:53:07.696Z,3.00
2019-03-06T11:55:37.092Z,2.70
2019-03-06T11:58:08.105Z,2.40
2019-03-06T12:00:40.421Z,2.57
2019-03-06T12:03:09.212Z,2.20
2019-03-06T12:05:38.270Z,2.13
2019-03-06T12:08:10.109Z,2.90
2019-03-06T12:10:39.035Z,3.87
2019-03-06T12:13:09.899Z,3.00
2019-03-06T12:15:38.689Z,3.33
2019-03-06T12:18:07.385Z,2.87
2019-03-06T12:20:35.792Z,2.77
2019-03-06T12:23:05.163Z,1.90
2019-03-06T12:25:34.404Z,2.10
2019-03-06T12:28:03.104Z,2.30
2019-03-06T12:30:32.085Z,2.33
2019-03-06T12:33:00.792Z,2.40
2019-03-06T12:35:29.573Z,2.73
2019-03-06T12:37:58.038Z,2.10
2019-03-06T12:40:28.884Z,2.67
2019-03-06T12:42:57.305Z,2.13
2019-03-06T12:45:27.287Z,2.10
2019-03-06T12:48:01.701Z,2.50
2019-03-06T12:50:38.421Z,2.23
2019-03-06T12:53:06.853Z,2.60
2019-03-06T12:55:35.521Z,2.70
2019-03-06T12:58:05.488Z,2.20
2019-03-06T13:00:34.242Z,2.13
2019-03-06T13:03:02.830Z,2.30
2019-03-06T13:05:31.313Z,2.30
2019-03-06T13:07:59.770Z,2.00
2019-03-06T13:10:28.488Z,2.07
2019-03-06T13:12:56.909Z,2.53
2019-03-06T13:15:25.962Z,1.90
2019-03-06T13:17:55.699Z,1.80
2019-03-06T13:20:24.656Z,2.40
2019-03-06T13:22:54.581Z,2.50
2019-03-06T13:25:24.692Z,1.90
2019-03-06T13:27:55.450Z,2.20
2019-03-06T13:30:25.065Z,2.03
2019-03-06T13:33:11.436Z,2.10
2019-03-06T13:35:40.818Z,2.07
2019-03-06T13:38:09.541Z,2.30
2019-03-06T13:40:37.959Z,2.10
2019-03-06T13:43:06.526Z,2.10
2019-03-06T13:45:35.601Z,2.37
2019-03-06T13:48:04.097Z,2.03
2019-03-06T13:50:32.757Z,2.43
2019-03-06T13:53:01.264Z,2.10
2019-03-06T13:55:30.018Z,2.53
2019-03-06T13:57:58.721Z,2.90
2019-03-06T14:00:27.139Z,1.83
2019-03-06T14:02:55.542Z,2.27
2019-03-06T14:05:24.668Z,1.77
2019-03-06T14:07:56.771Z,1.90
2019-03-06T14:10:26.654Z,1.87
2019-03-06T14:12:55.340Z,2.17
2019-03-06T14:15:24.284Z,1.90
2019-03-06T14:17:52.838Z,1.80
2019-03-06T14:20:23.168Z,2.03
2019-03-06T14:22:52.095Z,2.13
2019-03-06T14:25:21.038Z,2.07
2019-03-06T14:27:50.013Z,2.20
2019-03-06T14:30:21.613Z,1.90
2019-03-06T14:32:50.703Z,2.53
2019-03-06T14:35:19.444Z,2.50
2019-03-06T14:37:47.940Z,1.80
2019-03-06T14:40:19.433Z,2.23
2019-03-06T14:42:48.446Z,1.87
2019-03-06T14:45:17.365Z,2.30
2019-03-06T14:47:45.844Z,2.10
2019-03-06T14:50:14.781Z,2.90
2019-03-06T14:52:43.267Z,1.60
2019-03-06T14:55:32.544Z,2.30
2019-03-06T14:58:01.270Z,2.23
2019-03-06T15:00:29.695Z,1.80
2019-03-06T15:02:58.100Z,1.80
2019-03-06T15:05:26.532Z,1.93
2019-03-06T15:07:55.216Z,1.70
2019-03-06T15:10:23.994Z,1.60
2019-03-06T15:12:52.501Z,1.90
2019-03-06T15:15:21.459Z,1.47
2019-03-06T15:17:49.860Z,1.83
2019-03-06T15:20:20.588Z,1.80
2019-03-06T15:22:50.815Z,1.73
2019-03-06T15:25:31.877Z,1.90
2019-03-06T15:28:00.300Z,1.87
2019-03-06T15:30:28.825Z,2.00
2019-03-06T15:32:57.280Z,2.00
2019-03-06T15:35:26.089Z,1.93
2019-03-06T15:37:54.639Z,1.73
2019-03-06T15:40:28.148Z,2.00
2019-03-06T15:42:56.651Z,2.00
2019-03-06T15:45:26.790Z,1.90
2019-03-06T15:47:55.598Z,1.70
2019-03-06T15:50:24.161Z,1.80
2019-03-06T15:52:52.739Z,2.10
2019-03-06T15:55:30.413Z,1.87
2019-03-06T15:57:58.906Z,1.60
2019-03-06T16:00:30.770Z,1.70
2019-03-06T16:02:59.261Z,2.10
2019-03-06T16:05:28.253Z,2.07
2019-03-06T16:07:58.408Z,2.43
2019-03-06T16:10:27.641Z,1.90
2019-03-06T16:12:56.188Z,2.00
2019-03-06T16:15:27.006Z,2.50
2019-03-06T16:17:56.861Z,2.30
2019-03-06T16:20:25.597Z,2.70
2019-03-06T16:22:54.074Z,2.70
2019-03-06T16:25:23.449Z,2.40
2019-03-06T16:27:51.920Z,2.37
2019-03-06T16:30:25.313Z,1.70
2019-03-06T16:32:53.862Z,1.60
2019-03-06T16:35:22.726Z,1.80
2019-03-06T16:37:51.521Z,1.63
2019-03-06T16:40:22.306Z,1.10
2019-03-06T16:42:51.665Z,1.73
2019-03-06T16:45:25.360Z,1.47
2019-03-06T16:47:54.209Z,1.77
2019-03-06T16:50:23.448Z,1.80
2019-03-06T16:52:51.932Z,2.27
2019-03-06T16:55:22.850Z,2.23
2019-03-06T16:57:51.408Z,2.20
2019-03-06T17:00:25.253Z,1.70
2019-03-06T17:02:54.012Z,1.90
2019-03-06T17:05:22.778Z,2.17
2019-03-06T17:07:52.196Z,1.53
2019-03-06T17:10:23.037Z,1.73
2019-03-06T17:12:52.192Z,2.17
2019-03-06T17:15:22.114Z,2.07
2019-03-06T17:17:50.947Z,2.10
2019-03-06T17:20:27.228Z,2.03
2019-03-06T17:22:55.977Z,2.07
2019-03-06T17:25:27.388Z,2.40
2019-03-06T17:27:55.444Z,3.07
2019-03-06T17:30:29.024Z,2.40
2019-03-06T17:33:02.777Z,2.73
2019-03-06T17:35:32.632Z,2.53
2019-03-06T17:38:01.576Z,2.20
2019-03-06T17:40:35.040Z,2.70
2019-03-06T17:43:04.447Z,2.20
2019-03-06T17:45:33.144Z,2.50
2019-03-06T17:48:01.844Z,2.80
2019-03-06T17:50:30.506Z,3.73
2019-03-06T17:52:59.177Z,3.03
2019-03-06T17:55:27.707Z,3.53
2019-03-06T17:57:56.117Z,4.33
2019-03-06T18:00:28.723Z,4.40
2019-03-06T18:02:58.227Z,5.80
2019-03-06T18:05:26.903Z,4.37
2019-03-06T18:07:55.312Z,4.23
2019-03-06T18:10:23.871Z,3.73
2019-03-06T18:12:53.582Z,4.30
2019-03-06T18:15:22.384Z,3.10
2019-03-06T18:17:50.793Z,3.50
2019-03-06T18:20:19.856Z,3.10
2019-03-06T18:22:48.645Z,3.13
2019-03-06T18:25:18.894Z,2.90
2019-03-06T18:27:47.516Z,2.83
2019-03-06T18:30:20.439Z,2.70
2019-03-06T18:32:49.097Z,3.33
2019-03-06T18:35:21.858Z,3.50
2019-03-06T18:37:51.001Z,3.10
2019-03-06T18:40:21.589Z,3.40
2019-03-06T18:42:50.149Z,3.97
2019-03-06T18:45:20.389Z,4.00
2019-03-06T18:47:48.965Z,5.30
2019-03-06T18:50:25.079Z,5.60
2019-03-06T18:52:53.494Z,5.83
2019-03-06T18:55:22.109Z,5.13
2019-03-06T18:57:50.754Z,4.77
2019-03-06T19:00:38.497Z,4.97
2019-03-06T19:03:06.983Z,5.30
2019-03-06T19:05:37.034Z,6.03
2019-03-06T19:08:05.553Z,5.00
2019-03-06T19:10:53.572Z,5.63
2019-03-06T19:13:21.985Z,5.47
2019-03-06T19:15:50.460Z,5.20
2019-03-06T19:18:18.873Z,5.07
2019-03-06T19:20:48.779Z,4.50
2019-03-06T19:23:17.364Z,4.60
2019-03-06T19:25:45.777Z,4.27
2019-03-06T19:28:14.184Z,4.70
2019-03-06T19:30:42.592Z,5.60
2019-03-06T19:33:11.009Z,3.53
2019-03-06T19:35:39.160Z,3.77
2019-03-06T19:38:07.948Z,3.90
2019-03-06T19:40:36.381Z,3.77
2019-03-06T19:43:05.217Z,4.40
2019-03-06T19:45:33.621Z,4.40
2019-03-06T19:48:02.054Z,4.17
2019-03-06T19:50:30.445Z,4.33
2019-03-06T19:52:58.864Z,4.60
2019-03-06T19:55:27.277Z,4.47
2019-03-06T19:57:57.404Z,4.30
2019-03-06T20:00:29.506Z,5.03
2019-03-06T20:02:59.039Z,4.57
2019-03-06T20:05:30.153Z,4.40
2019-03-06T20:07:59.393Z,6.33
2019-03-06T20:10:27.871Z,5.80
2019-03-06T20:12:55.958Z,6.17
2019-03-06T20:15:24.373Z,6.73
2019-03-06T20:17:53.139Z,8.40
2019-03-06T20:20:21.612Z,6.27
2019-03-06T20:22:50.019Z,6.70
2019-03-06T20:25:19.640Z,6.87
2019-03-06T20:27:48.404Z,7.30
2019-03-06T20:30:25.196Z,7.03
2019-03-06T20:32:53.858Z,7.00
2019-03-06T20:35:23.886Z,7.53
2019-03-06T20:37:52.808Z,6.93
2019-03-06T20:40:21.661Z,6.83
2019-03-06T20:42:50.284Z,7.07
2019-03-06T20:45:19.532Z,6.53
2019-03-06T20:47:48.021Z,7.30
2019-03-06T20:50:18.541Z,7.57
2019-03-06T20:52:47.228Z,7.50
2019-03-06T20:55:15.654Z,7.20
2019-03-06T20:57:44.143Z,7.77
2019-03-06T21:00:22.048Z,7.63
2019-03-06T21:02:50.611Z,6.83
2019-03-06T21:05:19.093Z,8.23
2019-03-06T21:07:47.649Z,7.37
2019-03-06T21:10:18.344Z,7.60
2019-03-06T21:12:46.909Z,8.43
2019-03-06T21:15:17.704Z,9.13
2019-03-06T21:17:45.872Z,8.60
2019-03-06T21:20:24.541Z,9.57
2019-03-06T21:22:52.973Z,7.43
2019-03-06T21:25:22.096Z,6.27
2019-03-06T21:27:50.797Z,7.13
2019-03-06T21:30:26.928Z,7.80
2019-03-06T21:32:55.015Z,7.30
2019-03-06T21:35:23.496Z,7.00
2019-03-06T21:37:52.188Z,5.80
2019-03-06T21:40:20.670Z,7.50
2019-03-06T21:42:49.428Z,6.90
2019-03-06T21:45:17.913Z,6.60
2019-03-06T21:47:46.395Z,5.97
2019-03-06T21:50:16.789Z,5.70
2019-03-06T21:52:45.196Z,6.87
2019-03-06T21:55:16.650Z,6.60
2019-03-06T21:57:45.326Z,6.00
2019-03-06T22:00:23.949Z,6.73
2019-03-06T22:02:52.512Z,6.53
2019-03-06T22:05:20.924Z,6.63
2019-03-06T22:07:50.566Z,6.70
2019-03-06T22:10:19.703Z,5.97
2019-03-06T22:12:48.403Z,6.73
2019-03-06T22:15:23.674Z,5.97
2019-03-06T22:17:52.153Z,5.80
2019-03-06T22:20:20.644Z,6.07
2019-03-06T22:22:49.063Z,6.07
2019-03-06T22:25:18.477Z,6.03
2019-03-06T22:27:46.956Z,6.00
2019-03-06T22:30:18.445Z,5.50
2019-03-06T22:32:47.030Z,5.97
2019-03-06T22:35:15.516Z,5.30
2019-03-06T22:37:43.926Z,5.67
2019-03-06T22:40:15.208Z,8.07
2019-03-06T22:42:43.612Z,7.67
2019-03-06T22:45:14.365Z,6.60
2019-03-06T22:47:42.765Z,6.40
2019-03-06T22:50:13.425Z,5.33
2019-03-06T22:52:41.498Z,5.97
2019-03-06T22:55:12.925Z,5.57
2019-03-06T22:57:41.344Z,5.57
2019-03-06T23:00:32.484Z,4.70
2019-03-06T23:03:01.344Z,4.40
2019-03-06T23:05:32.201Z,4.03
2019-03-06T23:08:19.944Z,4.40
2019-03-06T23:10:48.361Z,3.77
2019-03-06T23:13:16.780Z,4.03
2019-03-06T23:15:45.197Z,3.53
2019-03-06T23:18:13.601Z,3.90
2019-03-06T23:20:42.319Z,4.00
2019-03-06T23:23:10.717Z,5.07
2019-03-06T23:25:39.132Z,5.43
2019-03-06T23:28:07.545Z,5.73
2019-03-06T23:30:35.960Z,5.07
2019-03-06T23:33:04.365Z,4.50
2019-03-06T23:35:32.779Z,6.00
2019-03-06T23:38:01.188Z,4.43
2019-03-06T23:40:29.604Z,5.17
2019-03-06T23:42:58.003Z,4.10
2019-03-06T23:45:26.596Z,5.33
2019-03-06T23:47:55.018Z,4.70
2019-03-06T23:50:23.425Z,5.20
2019-03-06T23:53:00.209Z,5.70
2019-03-06T23:55:30.272Z,5.33
2019-03-06T23:57:58.846Z,5.00
